Crymych, United Kingdom
Current Conditions -  °F | °C
As of 10:50 AM on Thursday 23 Oct 2014 (Local Time) from EGOP Reporting Station
Broken Clouds Broken Clouds  
Wind Chill: 59°   Ceiling: 300
Heat Index: 59°   Visibility: 0.93mi
Dew Point: 57°   Wind: 24mph
Humidity: 94%   Direction: 220°SW
Pressure: 30.06"   Gusts: NA
Location:  52.03°N, 4.68°W
Report Text: EGOP 230950Z AUTO 22021KT 1500 // BKN003/// BKN023/// 15/14 Q1018
Loading
Personal Weather Stations






























Interactive Weather Map New forecast layout! Learn more

10-Day Weather Forecast

Advertisements
Track Severe Weather on mobile